VTSP/HKT METAR and TAF weather

Enter ICAO airport designator
Station Type Date Time Source
VTSP METAR 2022/06/28 15:30 UTC NOAA

VTSP 281530Z 30004KT 260V320 9999 FEW020 27/25 Q1008 NOSIG


Station Type Date Time Source
VTSP Decoded METAR 2022/06/28 15:30 UTC NOAA

Phuket Airport, Thailand (VTSP) 08-07N 098-19E 10M
Jun 28, 2022 - 11:30 AM EDT / 2022.06.28 1530 UTC
Wind: from the WNW (300 degrees) at 5 MPH (4 KT) (direction variable):0
Visibility: greater than 7 mile(s):0
Sky conditions: mostly clear
Temperature: 80 F (27 C)
Dew Point: 77 F (25 C)
Relative Humidity: 88%
Pressure (altimeter): 29.77 in. Hg (1008 hPa)
ob: VTSP 281530Z 30004KT 260V320 9999 FEW020 27/25 Q1008 NOSIG
cycle: 15

Station Type Date Time Source
VTSP TAF 2022/06/28 12:36 UTC NOAA

TAF VTSP 281100Z 2812/2918 29008KT 9999 SCT020
BECMG 2816/2818 00000KT
BECMG 2900/2902 27009KT
TEMPO 2906/2914 27015G25KT 3000 TSRA FEW018CB SCT020 BKN100

Example: see airport list